createdAt,value
2022-09-06T00:00:31.232Z,6.97
2022-09-06T00:03:01.020Z,6.78
2022-09-06T00:05:30.797Z,8.77
2022-09-06T00:08:00.474Z,7.55
2022-09-06T00:10:31.392Z,7.18
2022-09-06T00:13:02.092Z,5.25
2022-09-06T00:15:31.597Z,7.50
2022-09-06T00:18:01.210Z,6.40
2022-09-06T00:20:30.425Z,8.93
2022-09-06T00:22:59.914Z,6.47
2022-09-06T00:25:30.891Z,7.70
2022-09-06T00:28:00.909Z,7.13
2022-09-06T00:30:30.969Z,5.20
2022-09-06T00:32:59.715Z,7.20
2022-09-06T00:35:29.053Z,6.00
2022-09-06T00:37:58.807Z,4.80
2022-09-06T00:40:29.366Z,6.65
2022-09-06T00:42:59.434Z,5.88
2022-09-06T00:45:29.282Z,6.68
2022-09-06T00:48:00.426Z,6.63
2022-09-06T00:50:30.143Z,5.07
2022-09-06T00:52:58.825Z,8.25
2022-09-06T00:55:27.595Z,7.68
2022-09-06T00:57:56.836Z,6.65
2022-09-06T01:00:26.818Z,6.10
2022-09-06T01:02:55.523Z,5.80
2022-09-06T01:05:36.066Z,5.25
2022-09-06T01:08:15.528Z,7.47
2022-09-06T01:10:59.864Z,7.10
2022-09-06T01:13:36.036Z,6.18
2022-09-06T01:16:13.831Z,6.97
2022-09-06T01:19:01.240Z,8.70
2022-09-06T01:21:46.467Z,6.65
2022-09-06T01:24:43.695Z,6.63
2022-09-06T01:27:55.764Z,7.10
2022-09-06T01:30:26.171Z,5.40
2022-09-06T01:33:02.537Z,5.97
2022-09-06T01:35:36.285Z,9.20
2022-09-06T01:38:06.226Z,8.70
2022-09-06T01:40:36.377Z,6.90
2022-09-06T01:43:10.633Z,7.60
2022-09-06T01:45:52.138Z,5.90
2022-09-06T01:48:34.819Z,7.28
2022-09-06T01:51:15.020Z,8.32
2022-09-06T01:53:55.816Z,6.18
2022-09-06T01:56:37.665Z,6.13
2022-09-06T01:59:28.037Z,8.20
2022-09-06T02:02:04.649Z,8.18
2022-09-06T02:04:41.982Z,7.57
2022-09-06T02:07:17.663Z,5.55
2022-09-06T02:09:52.222Z,7.03
2022-09-06T02:12:23.752Z,7.73
2022-09-06T02:14:58.485Z,9.63
2022-09-06T02:17:33.097Z,8.68
2022-09-06T02:20:05.797Z,7.00
2022-09-06T02:22:40.700Z,7.20
2022-09-06T02:25:12.521Z,7.25
2022-09-06T02:27:41.251Z,6.63
2022-09-06T02:30:10.913Z,6.75
2022-09-06T02:32:47.332Z,9.63
2022-09-06T02:35:17.590Z,7.10
2022-09-06T02:37:46.651Z,8.45
2022-09-06T02:40:15.552Z,8.07
2022-09-06T02:42:44.325Z,7.10
2022-09-06T02:45:12.971Z,7.28
2022-09-06T02:47:42.894Z,7.53
2022-09-06T02:50:13.152Z,8.80
2022-09-06T02:52:41.865Z,10.90
2022-09-06T02:55:11.249Z,9.75
2022-09-06T02:57:39.707Z,7.80
2022-09-06T03:00:09.214Z,9.23
2022-09-06T03:02:37.780Z,9.43
2022-09-06T03:05:08.673Z,10.50
2022-09-06T03:07:37.332Z,9.55
2022-09-06T03:10:06.543Z,9.77
2022-09-06T03:12:34.975Z,8.82
2022-09-06T03:15:03.519Z,9.20
2022-09-06T03:17:31.903Z,9.10
2022-09-06T03:20:00.340Z,9.02
2022-09-06T03:22:30.157Z,9.13
2022-09-06T03:24:58.636Z,11.40
2022-09-06T03:27:27.167Z,13.93
2022-09-06T03:29:55.657Z,12.93
2022-09-06T03:32:24.114Z,10.07
2022-09-06T03:34:52.980Z,9.07
2022-09-06T03:37:21.470Z,8.95
2022-09-06T03:39:51.313Z,9.88
2022-09-06T03:42:19.817Z,10.55
2022-09-06T03:44:48.415Z,11.70
2022-09-06T03:47:19.573Z,9.98
2022-09-06T03:49:48.452Z,10.57
2022-09-06T03:52:17.070Z,12.85
2022-09-06T03:54:45.735Z,13.63
2022-09-06T03:57:15.612Z,11.48
2022-09-06T03:59:44.082Z,14.65
2022-09-06T04:02:12.621Z,11.52
2022-09-06T04:04:41.147Z,13.80
2022-09-06T04:07:09.723Z,11.48
2022-09-06T04:09:38.506Z,11.15
2022-09-06T04:12:07.251Z,13.15
2022-09-06T04:14:37.150Z,15.10
2022-09-06T04:17:05.821Z,10.73
2022-09-06T04:19:34.332Z,9.85
2022-09-06T04:22:03.021Z,10.25
2022-09-06T04:24:31.577Z,9.48
2022-09-06T04:27:00.136Z,12.20
2022-09-06T04:29:28.636Z,11.25
2022-09-06T04:31:58.523Z,9.52
2022-09-06T04:34:27.014Z,8.13
2022-09-06T04:36:55.557Z,10.05
2022-09-06T04:39:24.116Z,6.95
2022-09-06T04:41:52.677Z,8.25
2022-09-06T04:44:21.279Z,8.82
2022-09-06T04:46:49.879Z,7.88
2022-09-06T04:49:19.870Z,10.73
2022-09-06T04:51:48.419Z,10.07
2022-09-06T04:54:16.956Z,7.85
2022-09-06T04:56:45.538Z,8.00
2022-09-06T04:59:14.087Z,6.60
2022-09-06T05:01:42.594Z,6.82
2022-09-06T05:04:11.200Z,6.30
2022-09-06T05:06:47.901Z,6.05
2022-09-06T05:09:16.811Z,5.93
2022-09-06T05:11:45.468Z,6.97
2022-09-06T05:14:14.009Z,6.72
2022-09-06T05:16:42.743Z,6.10
2022-09-06T05:19:11.552Z,7.15
2022-09-06T05:21:40.271Z,6.63
2022-09-06T05:24:10.253Z,6.20
2022-09-06T05:26:38.806Z,5.95
2022-09-06T05:29:07.499Z,6.97
2022-09-06T05:31:36.798Z,5.57
2022-09-06T05:34:05.574Z,6.70
2022-09-06T05:36:59.019Z,5.53
2022-09-06T05:39:29.234Z,4.95
2022-09-06T05:42:00.668Z,4.75
2022-09-06T05:44:29.248Z,4.60
2022-09-06T05:46:58.037Z,4.85
2022-09-06T05:49:26.577Z,4.70
2022-09-06T05:51:55.044Z,4.78
2022-09-06T05:54:23.609Z,4.35
2022-09-06T05:56:53.459Z,4.88
2022-09-06T05:59:21.943Z,5.10
2022-09-06T06:01:54.420Z,4.85
2022-09-06T06:04:23.637Z,4.75
2022-09-06T06:06:52.359Z,6.00
2022-09-06T06:09:20.922Z,4.47
2022-09-06T06:11:49.810Z,8.10
2022-09-06T06:14:19.799Z,8.52
2022-09-06T06:16:48.350Z,5.15
2022-09-06T06:19:17.001Z,5.65
2022-09-06T06:21:45.532Z,3.78
2022-09-06T06:24:14.168Z,4.25
2022-09-06T06:26:42.714Z,4.05
2022-09-06T06:29:11.500Z,1.90
2022-09-06T06:31:41.490Z,2.35
2022-09-06T06:34:10.271Z,2.10
2022-09-06T06:36:39.088Z,1.08
2022-09-06T06:39:09.486Z,1.05
2022-09-06T06:41:52.302Z,0.90
2022-09-06T06:44:33.982Z,1.33
2022-09-06T06:47:03.999Z,0.80
2022-09-06T06:49:32.569Z,0.70
2022-09-06T06:52:01.417Z,1.35
2022-09-06T06:54:29.910Z,0.60
2022-09-06T06:56:58.350Z,0.60
2022-09-06T06:59:26.857Z,1.58
2022-09-06T07:01:55.400Z,0.85
2022-09-06T07:04:25.771Z,0.70
2022-09-06T07:12:34.641Z,1.02
2022-09-06T07:15:03.254Z,1.25
2022-09-06T07:17:31.728Z,0.65
2022-09-06T07:20:16.921Z,1.65
2022-09-06T07:22:45.501Z,0.75
2022-09-06T07:25:20.587Z,2.35
2022-09-06T07:27:50.421Z,2.25
2022-09-06T07:30:20.738Z,1.27
2022-09-06T07:32:49.462Z,1.42
2022-09-06T07:35:20.419Z,1.98
2022-09-06T07:37:55.933Z,1.60
2022-09-06T07:40:24.939Z,1.48
2022-09-06T07:42:53.660Z,1.30
2022-09-06T07:45:22.163Z,1.27
2022-09-06T07:47:59.656Z,1.77
2022-09-06T07:50:48.838Z,2.03
2022-09-06T07:53:27.738Z,2.08
2022-09-06T07:56:00.473Z,1.45
2022-09-06T07:58:30.062Z,1.77
2022-09-06T08:01:20.887Z,1.33
2022-09-06T08:03:49.422Z,2.28
2022-09-06T08:06:20.095Z,1.05
2022-09-06T08:09:03.949Z,1.67
2022-09-06T08:11:33.876Z,1.10
2022-09-06T08:14:04.877Z,0.80
2022-09-06T08:16:35.408Z,2.72
2022-09-06T08:19:07.668Z,1.52
2022-09-06T08:21:37.620Z,1.60
2022-09-06T08:24:08.001Z,1.52
2022-09-06T08:26:39.425Z,1.10
2022-09-06T08:29:09.204Z,1.00
2022-09-06T08:31:39.528Z,0.77
2022-09-06T08:34:08.329Z,1.98
2022-09-06T08:36:38.129Z,2.00
2022-09-06T08:39:09.050Z,2.65
2022-09-06T08:41:47.564Z,1.98
2022-09-06T08:47:10.156Z,3.13
2022-09-06T08:49:41.747Z,1.98
2022-09-06T08:52:25.253Z,3.08
2022-09-06T08:55:02.979Z,1.60
2022-09-06T08:57:41.452Z,2.08
2022-09-06T09:00:13.013Z,1.42
2022-09-06T09:02:47.344Z,1.25
2022-09-06T09:05:23.881Z,2.80
2022-09-06T09:08:12.466Z,1.95
2022-09-06T09:10:43.953Z,0.90
2022-09-06T09:13:23.535Z,1.75
2022-09-06T09:15:52.388Z,2.25
2022-09-06T09:18:30.406Z,2.35
2022-09-06T09:21:00.048Z,1.50
2022-09-06T09:23:31.889Z,1.65
2022-09-06T09:26:04.455Z,2.17
2022-09-06T09:28:33.271Z,2.05
2022-09-06T09:31:01.807Z,1.38
2022-09-06T09:33:35.692Z,2.42
2022-09-06T09:38:43.420Z,1.75
2022-09-06T09:41:25.256Z,2.72
2022-09-06T09:44:02.273Z,2.03
2022-09-06T09:46:34.322Z,2.75
2022-09-06T09:49:09.049Z,1.38
2022-09-06T09:51:39.886Z,2.42
2022-09-06T09:54:11.649Z,3.20
2022-09-06T09:56:45.488Z,3.60
2022-09-06T10:01:48.729Z,3.45
2022-09-06T10:07:14.237Z,1.50
2022-09-06T10:09:47.116Z,2.15
2022-09-06T10:12:19.017Z,1.37
2022-09-06T10:14:49.276Z,2.70
2022-09-06T10:17:23.412Z,3.28
2022-09-06T10:19:51.811Z,1.77
2022-09-06T10:22:25.286Z,2.53
2022-09-06T10:25:22.278Z,1.42
2022-09-06T10:28:11.686Z,2.15
2022-09-06T10:30:49.005Z,2.00
2022-09-06T10:33:28.702Z,2.70
2022-09-06T10:36:01.304Z,1.73
2022-09-06T10:38:40.750Z,2.80
2022-09-06T10:41:26.531Z,1.52
2022-09-06T10:44:06.274Z,2.40
2022-09-06T10:46:36.265Z,2.03
2022-09-06T10:49:04.782Z,3.20
2022-09-06T10:51:38.553Z,2.47
2022-09-06T10:56:43.369Z,2.92
2022-09-06T10:59:37.716Z,2.75
2022-09-06T11:02:20.161Z,1.23
2022-09-06T11:10:34.244Z,2.03
2022-09-06T11:13:09.863Z,0.95
2022-09-06T11:15:52.041Z,2.13
2022-09-06T11:18:26.837Z,0.70
2022-09-06T11:21:19.352Z,1.42
2022-09-06T11:23:51.229Z,2.15
2022-09-06T11:26:41.415Z,1.63
2022-09-06T11:29:19.491Z,1.95
2022-09-06T11:34:54.301Z,1.75
2022-09-06T11:37:27.037Z,1.02
2022-09-06T11:40:29.431Z,1.67
2022-09-06T11:43:17.213Z,3.08
2022-09-06T11:45:50.557Z,1.17
2022-09-06T11:48:37.331Z,1.35
2022-09-06T11:51:10.898Z,0.80
2022-09-06T11:54:07.192Z,1.05
2022-09-06T11:56:41.602Z,2.65
2022-09-06T11:59:22.313Z,1.38
2022-09-06T12:02:03.759Z,2.00
2022-09-06T12:05:27.094Z,1.92
2022-09-06T12:08:34.096Z,1.60
2022-09-06T12:11:06.114Z,1.00
2022-09-06T12:13:54.277Z,2.63
2022-09-06T12:16:24.079Z,1.65
2022-09-06T12:19:00.303Z,2.63
2022-09-06T12:21:45.988Z,1.55
2022-09-06T12:24:50.558Z,3.72
2022-09-06T12:27:20.674Z,1.30
2022-09-06T12:29:56.156Z,3.42
2022-09-06T12:32:31.633Z,1.00
2022-09-06T12:37:57.010Z,2.10
2022-09-06T12:40:27.613Z,1.92
2022-09-06T12:42:56.778Z,1.95
2022-09-06T12:45:27.511Z,1.20
2022-09-06T12:48:25.860Z,1.58
2022-09-06T12:51:03.809Z,4.32
2022-09-06T12:53:34.194Z,1.92
2022-09-06T12:56:07.096Z,3.55
2022-09-06T12:58:36.271Z,0.93
2022-09-06T13:01:12.414Z,2.05
2022-09-06T13:03:45.574Z,0.80
2022-09-06T13:06:24.533Z,2.10
2022-09-06T13:08:58.376Z,2.83
2022-09-06T13:11:31.426Z,2.28
2022-09-06T13:14:00.421Z,1.53
2022-09-06T13:16:32.382Z,2.50
2022-09-06T13:19:13.664Z,2.53
2022-09-06T13:21:45.904Z,2.30
2022-09-06T13:24:23.918Z,1.40
2022-09-06T13:26:53.319Z,1.48
2022-09-06T13:29:30.339Z,2.05
2022-09-06T13:32:00.973Z,3.17
2022-09-06T13:34:31.576Z,2.08
2022-09-06T13:37:04.433Z,2.55
2022-09-06T13:39:35.282Z,1.13
2022-09-06T13:42:07.313Z,2.50
2022-09-06T13:44:37.291Z,2.33
2022-09-06T13:47:06.807Z,0.88
2022-09-06T13:49:35.237Z,0.98
2022-09-06T13:52:05.734Z,1.70
2022-09-06T13:54:34.654Z,3.47
2022-09-06T13:57:03.370Z,2.35
2022-09-06T13:59:32.099Z,3.50
2022-09-06T14:02:03.376Z,2.55
2022-09-06T14:04:32.558Z,3.03
2022-09-06T14:07:01.728Z,1.48
2022-09-06T14:09:32.603Z,1.75
2022-09-06T14:12:02.149Z,1.88
2022-09-06T14:14:30.918Z,2.55
2022-09-06T14:16:59.897Z,1.42
2022-09-06T14:19:28.794Z,1.88
2022-09-06T14:21:57.404Z,1.05
2022-09-06T14:24:26.167Z,1.35
2022-09-06T14:26:56.086Z,3.88
2022-09-06T14:29:24.890Z,1.35
2022-09-06T14:31:56.853Z,1.23
2022-09-06T14:34:26.232Z,1.17
2022-09-06T14:36:55.355Z,2.25
2022-09-06T14:39:24.039Z,1.45
2022-09-06T14:41:53.140Z,1.13
2022-09-06T14:44:23.272Z,2.08
2022-09-06T14:46:53.423Z,2.35
2022-09-06T14:49:22.233Z,1.55
2022-09-06T14:51:53.051Z,1.15
2022-09-06T14:54:25.041Z,1.65
2022-09-06T14:59:26.669Z,1.77
2022-09-06T15:01:55.563Z,0.80
2022-09-06T15:04:24.363Z,3.00
2022-09-06T15:06:53.851Z,0.82
2022-09-06T15:09:22.556Z,2.58
2022-09-06T15:11:52.689Z,15.43
2022-09-06T15:14:23.099Z,0.93
2022-09-06T15:16:56.614Z,6.50
2022-09-06T15:19:25.715Z,0.93
2022-09-06T15:21:55.305Z,2.65
2022-09-06T15:24:25.424Z,1.42
2022-09-06T15:26:54.248Z,0.70
2022-09-06T15:29:23.013Z,0.80
2022-09-06T15:31:53.303Z,1.45
2022-09-06T15:34:23.848Z,1.42
2022-09-06T15:36:53.689Z,1.17
2022-09-06T15:39:22.287Z,0.82
2022-09-06T15:41:51.787Z,1.08
2022-09-06T15:44:21.494Z,1.17
2022-09-06T15:46:51.936Z,0.95
2022-09-06T15:49:27.844Z,0.80
2022-09-06T15:51:58.124Z,1.17
2022-09-06T15:54:40.509Z,0.75
2022-09-06T15:57:09.724Z,2.40
2022-09-06T15:59:38.343Z,1.48
2022-09-06T16:02:06.929Z,1.88
2022-09-06T16:04:36.900Z,1.35
2022-09-06T16:07:05.586Z,1.45
2022-09-06T16:09:34.698Z,5.07
2022-09-06T16:12:03.518Z,2.08
2022-09-06T16:14:32.299Z,2.33
2022-09-06T16:17:01.148Z,2.70
2022-09-06T16:19:29.731Z,2.17
2022-09-06T16:22:00.926Z,2.85
2022-09-06T16:24:29.589Z,1.58
2022-09-06T16:26:58.218Z,1.38
2022-09-06T16:29:26.999Z,1.20
2022-09-06T16:31:59.625Z,1.08
2022-09-06T16:34:28.560Z,1.80
2022-09-06T16:36:57.282Z,3.10
2022-09-06T16:39:28.016Z,1.00
2022-09-06T16:41:56.652Z,1.55
2022-09-06T16:44:25.292Z,1.10
2022-09-06T16:46:54.045Z,1.25
2022-09-06T16:49:23.070Z,1.50
2022-09-06T16:51:52.210Z,0.95
2022-09-06T16:54:21.055Z,0.80
2022-09-06T16:56:51.418Z,3.05
2022-09-06T16:59:21.606Z,1.13
2022-09-06T17:01:51.591Z,1.48
2022-09-06T17:04:20.281Z,1.73
2022-09-06T17:06:49.105Z,3.40
2022-09-06T17:09:19.985Z,2.10
2022-09-06T17:11:50.573Z,2.80
2022-09-06T17:14:19.586Z,1.10
2022-09-06T17:17:05.442Z,1.40
2022-09-06T17:19:37.520Z,1.80
2022-09-06T17:22:06.626Z,2.30
2022-09-06T17:24:35.654Z,1.52
2022-09-06T17:27:06.223Z,7.05
2022-09-06T17:29:34.888Z,3.00
2022-09-06T17:32:09.856Z,1.50
2022-09-06T17:34:38.677Z,8.63
2022-09-06T17:37:08.186Z,1.45
2022-09-06T17:39:36.952Z,8.73
2022-09-06T17:42:07.591Z,16.50
2022-09-06T17:44:36.139Z,2.35
2022-09-06T17:47:13.744Z,25.88
2022-09-06T17:49:48.904Z,6.30
2022-09-06T17:52:23.482Z,2.88
2022-09-06T17:54:57.201Z,2.22
2022-09-06T17:57:27.139Z,2.70
2022-09-06T17:59:55.736Z,1.77
2022-09-06T18:02:24.303Z,1.17
2022-09-06T18:04:52.937Z,2.33
2022-09-06T18:07:21.523Z,2.35
2022-09-06T18:09:50.214Z,1.95
2022-09-06T18:12:24.934Z,3.53
2022-09-06T18:15:04.326Z,2.97
2022-09-06T18:17:35.787Z,1.88
2022-09-06T18:20:05.132Z,1.38
2022-09-06T18:22:33.846Z,2.28
2022-09-06T18:25:02.387Z,2.60
2022-09-06T18:27:30.899Z,1.52
2022-09-06T18:30:00.817Z,2.78
2022-09-06T18:32:29.318Z,1.10
2022-09-06T18:34:57.864Z,1.88
2022-09-06T18:37:26.411Z,2.55
2022-09-06T18:39:54.949Z,1.17
2022-09-06T18:42:23.578Z,1.75
2022-09-06T18:44:52.072Z,1.80
2022-09-06T18:47:22.391Z,1.85
2022-09-06T18:49:51.012Z,5.28
2022-09-06T18:52:20.643Z,2.55
2022-09-06T18:54:52.342Z,1.90
2022-09-06T18:57:21.136Z,2.67
2022-09-06T18:59:49.701Z,2.75
2022-09-06T19:02:18.562Z,4.00
2022-09-06T19:04:48.630Z,1.90
2022-09-06T19:07:18.264Z,1.80
2022-09-06T19:09:46.773Z,3.15
2022-09-06T19:12:15.598Z,2.25
2022-09-06T19:14:44.243Z,1.40
2022-09-06T19:17:12.800Z,1.73
2022-09-06T19:19:41.492Z,2.67
2022-09-06T19:22:11.590Z,3.13
2022-09-06T19:24:42.011Z,2.65
2022-09-06T19:27:11.751Z,2.10
2022-09-06T19:29:40.512Z,1.73
2022-09-06T19:32:09.347Z,3.30
2022-09-06T19:34:38.658Z,1.73
2022-09-06T19:37:07.284Z,1.50
2022-09-06T19:39:37.566Z,3.22
2022-09-06T19:42:07.039Z,1.38
2022-09-06T19:44:35.977Z,2.05
2022-09-06T19:47:04.588Z,2.08
2022-09-06T19:49:33.216Z,3.78
2022-09-06T19:52:04.188Z,1.52
2022-09-06T19:54:32.929Z,1.13
2022-09-06T19:57:03.289Z,1.98
2022-09-06T19:59:32.025Z,1.27
2022-09-06T20:02:00.593Z,1.08
2022-09-06T20:04:29.146Z,1.45
2022-09-06T20:06:57.853Z,2.25
2022-09-06T20:09:29.529Z,2.85
2022-09-06T20:11:58.108Z,2.47
2022-09-06T20:14:28.677Z,1.55
2022-09-06T20:17:11.108Z,2.05
2022-09-06T20:19:47.188Z,2.22
2022-09-06T20:22:15.781Z,3.47
2022-09-06T20:24:44.720Z,3.13
2022-09-06T20:27:13.874Z,3.55
2022-09-06T20:29:44.141Z,1.85
2022-09-06T20:32:12.746Z,1.98
2022-09-06T20:34:41.632Z,1.55
2022-09-06T20:37:10.855Z,2.75
2022-09-06T20:39:39.836Z,3.42
2022-09-06T20:42:08.632Z,1.77
2022-09-06T20:44:37.184Z,2.38
2022-09-06T20:47:07.391Z,2.30
2022-09-06T20:49:36.194Z,1.80
2022-09-06T20:52:04.766Z,1.92
2022-09-06T20:54:33.865Z,2.08
2022-09-06T20:57:02.475Z,2.53
2022-09-06T20:59:31.124Z,2.88
2022-09-06T21:01:59.750Z,2.50
2022-09-06T21:04:29.881Z,4.93
2022-09-06T21:06:58.457Z,2.22
2022-09-06T21:09:27.287Z,1.98
2022-09-06T21:11:57.612Z,2.72
2022-09-06T21:14:26.382Z,2.83
2022-09-06T21:16:54.897Z,1.92
2022-09-06T21:19:23.485Z,1.33
2022-09-06T21:21:53.437Z,2.83
2022-09-06T21:24:22.076Z,2.55
2022-09-06T21:26:50.789Z,2.40
2022-09-06T21:29:19.366Z,1.92
2022-09-06T21:31:48.023Z,2.15
2022-09-06T21:34:17.415Z,6.90
2022-09-06T21:36:46.365Z,5.60
2022-09-06T21:39:16.561Z,3.60
2022-09-06T21:41:45.732Z,6.97
2022-09-06T21:44:14.495Z,5.20
2022-09-06T21:46:43.240Z,3.92
2022-09-06T21:49:13.812Z,4.00
2022-09-06T21:51:43.011Z,5.95
2022-09-06T21:54:11.777Z,6.93
2022-09-06T21:56:41.985Z,4.82
2022-09-06T21:59:11.450Z,5.22
2022-09-06T22:01:43.944Z,4.85
2022-09-06T22:04:14.205Z,5.10
2022-09-06T22:06:42.818Z,5.78
2022-09-06T22:09:13.044Z,6.80
2022-09-06T22:11:45.031Z,7.70
2022-09-06T22:14:15.681Z,6.07
2022-09-06T22:16:44.947Z,5.28
2022-09-06T22:19:13.668Z,5.85
2022-09-06T22:21:42.159Z,5.68
2022-09-06T22:24:12.697Z,5.78
2022-09-06T22:26:43.333Z,4.82
2022-09-06T22:29:13.432Z,4.78
2022-09-06T22:31:42.173Z,5.70
2022-09-06T22:34:11.574Z,2.65
2022-09-06T22:36:40.427Z,3.08
2022-09-06T22:39:09.504Z,2.70
2022-09-06T22:41:38.278Z,4.10
2022-09-06T22:44:08.454Z,3.13
2022-09-06T22:46:38.326Z,3.95
2022-09-06T22:49:07.105Z,2.90
2022-09-06T22:51:35.714Z,3.70
2022-09-06T22:54:04.588Z,2.17
2022-09-06T22:56:33.386Z,3.88
2022-09-06T22:59:02.341Z,3.35
2022-09-06T23:01:38.550Z,3.60
2022-09-06T23:04:07.421Z,2.90
2022-09-06T23:06:36.287Z,2.03
2022-09-06T23:09:05.412Z,3.83
2022-09-06T23:11:33.999Z,2.80
2022-09-06T23:14:02.962Z,2.25
2022-09-06T23:16:32.933Z,2.55
2022-09-06T23:19:01.472Z,3.53
2022-09-06T23:21:30.014Z,4.57
2022-09-06T23:23:58.604Z,2.53
2022-09-06T23:26:30.664Z,3.75
2022-09-06T23:28:59.999Z,4.10
2022-09-06T23:31:32.316Z,3.13
2022-09-06T23:34:03.256Z,2.03
2022-09-06T23:36:32.745Z,2.40
2022-09-06T23:39:02.481Z,3.75
2022-09-06T23:41:31.798Z,2.10
2022-09-06T23:44:00.705Z,4.40
2022-09-06T23:46:30.284Z,4.25
2022-09-06T23:48:59.091Z,5.50
2022-09-06T23:51:28.986Z,2.88
2022-09-06T23:53:58.275Z,4.38
2022-09-06T23:56:26.906Z,2.50
2022-09-06T23:58:55.446Z,2.15
